sensor_id;sensor_type;location;lat;lon;timestamp;P1;durP1;ratioP1;P2;durP2;ratioP2
23826;SDS011;12094;50.822;4.376;2022-08-01T00:01:20;6.90;;;2.00;;
23826;SDS011;12094;50.822;4.376;2022-08-01T00:03:47;3.38;;;1.83;;
23826;SDS011;12094;50.822;4.376;2022-08-01T00:06:14;5.88;;;2.22;;
23826;SDS011;12094;50.822;4.376;2022-08-01T00:08:43;7.25;;;1.98;;
23826;SDS011;12094;50.822;4.376;2022-08-01T00:11:10;5.35;;;2.20;;
23826;SDS011;12094;50.822;4.376;2022-08-01T00:13:37;7.45;;;2.38;;
23826;SDS011;12094;50.822;4.376;2022-08-01T00:16:04;6.13;;;2.10;;
23826;SDS011;12094;50.822;4.376;2022-08-01T00:18:31;3.97;;;1.95;;
23826;SDS011;12094;50.822;4.376;2022-08-01T00:20:59;5.38;;;2.20;;
23826;SDS011;12094;50.822;4.376;2022-08-01T00:23:27;8.55;;;2.80;;
23826;SDS011;12094;50.822;4.376;2022-08-01T00:25:54;6.22;;;2.67;;
23826;SDS011;12094;50.822;4.376;2022-08-01T00:28:21;8.23;;;2.95;;
23826;SDS011;12094;50.822;4.376;2022-08-01T00:30:48;7.10;;;3.20;;
23826;SDS011;12094;50.822;4.376;2022-08-01T00:33:15;9.40;;;3.63;;
23826;SDS011;12094;50.822;4.376;2022-08-01T00:35:43;6.68;;;3.80;;
23826;SDS011;12094;50.822;4.376;2022-08-01T00:38:12;5.93;;;3.55;;
23826;SDS011;12094;50.822;4.376;2022-08-01T00:40:39;9.25;;;4.18;;
23826;SDS011;12094;50.822;4.376;2022-08-01T00:43:06;10.73;;;4.68;;
23826;SDS011;12094;50.822;4.376;2022-08-01T00:45:34;8.80;;;3.90;;
23826;SDS011;12094;50.822;4.376;2022-08-01T00:48:02;8.52;;;3.60;;
23826;SDS011;12094;50.822;4.376;2022-08-01T00:50:29;11.77;;;4.43;;
23826;SDS011;12094;50.822;4.376;2022-08-01T00:52:56;7.05;;;3.92;;
23826;SDS011;12094;50.822;4.376;2022-08-01T00:55:26;8.60;;;3.92;;
23826;SDS011;12094;50.822;4.376;2022-08-01T00:57:54;7.38;;;3.85;;
23826;SDS011;12094;50.822;4.376;2022-08-01T01:00:32;8.45;;;3.55;;
23826;SDS011;12094;50.822;4.376;2022-08-01T01:03:20;6.95;;;3.63;;
23826;SDS011;12094;50.822;4.376;2022-08-01T01:09:12;5.90;;;3.00;;
23826;SDS011;12094;50.822;4.376;2022-08-01T01:14:56;4.75;;;3.10;;
23826;SDS011;12094;50.822;4.376;2022-08-01T01:17:29;8.70;;;3.40;;
23826;SDS011;12094;50.822;4.376;2022-08-01T01:20:18;5.97;;;2.97;;
23826;SDS011;12094;50.822;4.376;2022-08-01T01:28:34;8.77;;;4.95;;
23826;SDS011;12094;50.822;4.376;2022-08-01T01:31:12;12.13;;;5.72;;
23826;SDS011;12094;50.822;4.376;2022-08-01T01:33:42;11.10;;;5.43;;
23826;SDS011;12094;50.822;4.376;2022-08-01T01:36:13;9.75;;;5.65;;
23826;SDS011;12094;50.822;4.376;2022-08-01T01:38:45;10.95;;;6.30;;
23826;SDS011;12094;50.822;4.376;2022-08-01T01:41:14;10.55;;;6.20;;
23826;SDS011;12094;50.822;4.376;2022-08-01T01:43:43;11.63;;;6.95;;
23826;SDS011;12094;50.822;4.376;2022-08-01T01:46:15;11.30;;;6.50;;
23826;SDS011;12094;50.822;4.376;2022-08-01T01:48:45;10.52;;;6.07;;
23826;SDS011;12094;50.822;4.376;2022-08-01T01:51:13;12.70;;;6.80;;
23826;SDS011;12094;50.822;4.376;2022-08-01T01:53:42;13.68;;;6.13;;
23826;SDS011;12094;50.822;4.376;2022-08-01T01:56:10;13.57;;;6.90;;
23826;SDS011;12094;50.822;4.376;2022-08-01T01:58:40;17.77;;;7.97;;
23826;SDS011;12094;50.822;4.376;2022-08-01T02:01:09;15.95;;;8.60;;
23826;SDS011;12094;50.822;4.376;2022-08-01T02:03:40;15.98;;;7.88;;
23826;SDS011;12094;50.822;4.376;2022-08-01T02:06:09;19.60;;;9.65;;
23826;SDS011;12094;50.822;4.376;2022-08-01T02:08:40;19.95;;;9.32;;
23826;SDS011;12094;50.822;4.376;2022-08-01T02:11:08;24.40;;;10.13;;
23826;SDS011;12094;50.822;4.376;2022-08-01T02:14:00;23.55;;;9.82;;
23826;SDS011;12094;50.822;4.376;2022-08-01T02:16:29;25.85;;;9.77;;
23826;SDS011;12094;50.822;4.376;2022-08-01T02:19:03;21.50;;;9.57;;
23826;SDS011;12094;50.822;4.376;2022-08-01T02:21:34;22.88;;;9.45;;
23826;SDS011;12094;50.822;4.376;2022-08-01T02:24:21;21.63;;;9.23;;
23826;SDS011;12094;50.822;4.376;2022-08-01T02:26:56;20.75;;;9.20;;
23826;SDS011;12094;50.822;4.376;2022-08-01T02:29:33;24.63;;;10.18;;
23826;SDS011;12094;50.822;4.376;2022-08-01T02:32:43;18.90;;;9.60;;
23826;SDS011;12094;50.822;4.376;2022-08-01T02:35:13;19.27;;;10.40;;
23826;SDS011;12094;50.822;4.376;2022-08-01T02:37:48;17.48;;;10.13;;
23826;SDS011;12094;50.822;4.376;2022-08-01T02:40:16;25.98;;;11.85;;
23826;SDS011;12094;50.822;4.376;2022-08-01T02:42:47;26.88;;;11.57;;
23826;SDS011;12094;50.822;4.376;2022-08-01T02:45:17;28.70;;;13.43;;
23826;SDS011;12094;50.822;4.376;2022-08-01T02:47:47;27.27;;;12.50;;
23826;SDS011;12094;50.822;4.376;2022-08-01T02:50:15;27.40;;;12.27;;
23826;SDS011;12094;50.822;4.376;2022-08-01T02:52:45;29.98;;;13.05;;
23826;SDS011;12094;50.822;4.376;2022-08-01T02:57:44;27.33;;;11.75;;
23826;SDS011;12094;50.822;4.376;2022-08-01T03:00:23;26.83;;;12.05;;
23826;SDS011;12094;50.822;4.376;2022-08-01T03:02:51;25.40;;;11.60;;
23826;SDS011;12094;50.822;4.376;2022-08-01T03:05:21;28.02;;;12.15;;
23826;SDS011;12094;50.822;4.376;2022-08-01T03:07:51;28.75;;;12.07;;
23826;SDS011;12094;50.822;4.376;2022-08-01T03:10:27;27.27;;;12.57;;
23826;SDS011;12094;50.822;4.376;2022-08-01T03:12:55;25.98;;;11.60;;
23826;SDS011;12094;50.822;4.376;2022-08-01T03:15:26;29.05;;;12.52;;
23826;SDS011;12094;50.822;4.376;2022-08-01T03:17:57;26.33;;;11.80;;
23826;SDS011;12094;50.822;4.376;2022-08-01T03:20:28;23.75;;;12.13;;
23826;SDS011;12094;50.822;4.376;2022-08-01T03:22:56;26.50;;;12.40;;
23826;SDS011;12094;50.822;4.376;2022-08-01T03:25:26;25.00;;;13.13;;
23826;SDS011;12094;50.822;4.376;2022-08-01T03:27:56;26.25;;;12.52;;
23826;SDS011;12094;50.822;4.376;2022-08-01T03:30:26;24.70;;;13.15;;
23826;SDS011;12094;50.822;4.376;2022-08-01T03:32:54;23.48;;;13.30;;
23826;SDS011;12094;50.822;4.376;2022-08-01T03:35:22;31.20;;;14.32;;
23826;SDS011;12094;50.822;4.376;2022-08-01T03:37:52;28.38;;;14.45;;
23826;SDS011;12094;50.822;4.376;2022-08-01T03:40:45;25.15;;;13.55;;
23826;SDS011;12094;50.822;4.376;2022-08-01T03:43:16;30.40;;;14.05;;
23826;SDS011;12094;50.822;4.376;2022-08-01T03:45:48;32.40;;;14.18;;
23826;SDS011;12094;50.822;4.376;2022-08-01T03:48:18;30.88;;;15.38;;
23826;SDS011;12094;50.822;4.376;2022-08-01T03:50:48;29.75;;;15.18;;
23826;SDS011;12094;50.822;4.376;2022-08-01T03:53:22;29.98;;;15.35;;
23826;SDS011;12094;50.822;4.376;2022-08-01T03:55:52;29.50;;;14.45;;
23826;SDS011;12094;50.822;4.376;2022-08-01T03:58:21;27.70;;;15.32;;
23826;SDS011;12094;50.822;4.376;2022-08-01T04:00:49;28.02;;;15.10;;
23826;SDS011;12094;50.822;4.376;2022-08-01T04:03:16;33.15;;;16.10;;
23826;SDS011;12094;50.822;4.376;2022-08-01T04:05:44;34.42;;;15.60;;
23826;SDS011;12094;50.822;4.376;2022-08-01T04:08:11;33.08;;;15.73;;
23826;SDS011;12094;50.822;4.376;2022-08-01T04:10:38;30.88;;;16.73;;
23826;SDS011;12094;50.822;4.376;2022-08-01T04:13:05;38.78;;;17.92;;
23826;SDS011;12094;50.822;4.376;2022-08-01T04:15:33;37.92;;;19.52;;
23826;SDS011;12094;50.822;4.376;2022-08-01T04:18:02;38.72;;;19.02;;
23826;SDS011;12094;50.822;4.376;2022-08-01T04:20:29;39.90;;;19.63;;
23826;SDS011;12094;50.822;4.376;2022-08-01T04:23:01;39.78;;;19.55;;
23826;SDS011;12094;50.822;4.376;2022-08-01T04:25:29;39.45;;;19.58;;
23826;SDS011;12094;50.822;4.376;2022-08-01T04:28:08;35.42;;;17.73;;
23826;SDS011;12094;50.822;4.376;2022-08-01T04:30:45;26.08;;;16.58;;
23826;SDS011;12094;50.822;4.376;2022-08-01T04:33:15;29.88;;;18.05;;
23826;SDS011;12094;50.822;4.376;2022-08-01T04:35:44;31.10;;;17.80;;
23826;SDS011;12094;50.822;4.376;2022-08-01T04:38:30;22.48;;;15.15;;
23826;SDS011;12094;50.822;4.376;2022-08-01T04:41:03;26.95;;;17.23;;
23826;SDS011;12094;50.822;4.376;2022-08-01T04:43:36;26.33;;;17.00;;
23826;SDS011;12094;50.822;4.376;2022-08-01T04:46:03;32.72;;;18.35;;
23826;SDS011;12094;50.822;4.376;2022-08-01T04:48:33;29.05;;;18.33;;
23826;SDS011;12094;50.822;4.376;2022-08-01T04:51:03;30.50;;;18.90;;
23826;SDS011;12094;50.822;4.376;2022-08-01T04:53:31;30.02;;;18.15;;
23826;SDS011;12094;50.822;4.376;2022-08-01T04:58:48;40.22;;;23.08;;
23826;SDS011;12094;50.822;4.376;2022-08-01T05:01:42;33.35;;;20.52;;
23826;SDS011;12094;50.822;4.376;2022-08-01T05:04:15;37.15;;;21.10;;
23826;SDS011;12094;50.822;4.376;2022-08-01T05:06:42;35.83;;;19.95;;
23826;SDS011;12094;50.822;4.376;2022-08-01T05:09:09;37.00;;;18.40;;
23826;SDS011;12094;50.822;4.376;2022-08-01T05:11:37;35.78;;;18.60;;
23826;SDS011;12094;50.822;4.376;2022-08-01T05:14:04;31.63;;;17.98;;
23826;SDS011;12094;50.822;4.376;2022-08-01T05:16:32;33.38;;;18.45;;
23826;SDS011;12094;50.822;4.376;2022-08-01T05:18:59;29.00;;;18.00;;
23826;SDS011;12094;50.822;4.376;2022-08-01T05:21:26;31.15;;;19.15;;
23826;SDS011;12094;50.822;4.376;2022-08-01T05:23:53;33.55;;;19.02;;
23826;SDS011;12094;50.822;4.376;2022-08-01T05:26:20;30.75;;;19.63;;
23826;SDS011;12094;50.822;4.376;2022-08-01T05:28:48;36.92;;;19.17;;
23826;SDS011;12094;50.822;4.376;2022-08-01T05:31:15;36.15;;;19.30;;
23826;SDS011;12094;50.822;4.376;2022-08-01T05:33:42;28.73;;;18.65;;
23826;SDS011;12094;50.822;4.376;2022-08-01T05:36:10;33.65;;;18.65;;
23826;SDS011;12094;50.822;4.376;2022-08-01T05:38:37;28.73;;;19.30;;
23826;SDS011;12094;50.822;4.376;2022-08-01T05:41:04;29.75;;;17.90;;
23826;SDS011;12094;50.822;4.376;2022-08-01T05:43:32;30.63;;;18.15;;
23826;SDS011;12094;50.822;4.376;2022-08-01T05:45:59;22.73;;;15.38;;
23826;SDS011;12094;50.822;4.376;2022-08-01T05:48:27;22.67;;;14.77;;
23826;SDS011;12094;50.822;4.376;2022-08-01T05:50:54;17.98;;;12.77;;
23826;SDS011;12094;50.822;4.376;2022-08-01T05:53:24;18.30;;;11.73;;
23826;SDS011;12094;50.822;4.376;2022-08-01T05:55:52;17.00;;;12.65;;
23826;SDS011;12094;50.822;4.376;2022-08-01T05:58:18;20.60;;;14.15;;
23826;SDS011;12094;50.822;4.376;2022-08-01T06:00:45;14.85;;;11.13;;
23826;SDS011;12094;50.822;4.376;2022-08-01T06:03:14;14.10;;;9.77;;
23826;SDS011;12094;50.822;4.376;2022-08-01T06:05:41;14.30;;;9.48;;
23826;SDS011;12094;50.822;4.376;2022-08-01T06:08:11;14.50;;;9.73;;
23826;SDS011;12094;50.822;4.376;2022-08-01T06:10:38;13.60;;;8.57;;
23826;SDS011;12094;50.822;4.376;2022-08-01T06:13:04;12.45;;;8.38;;
23826;SDS011;12094;50.822;4.376;2022-08-01T06:15:33;10.45;;;8.15;;
23826;SDS011;12094;50.822;4.376;2022-08-01T06:18:02;11.80;;;7.90;;
23826;SDS011;12094;50.822;4.376;2022-08-01T06:20:31;13.70;;;8.18;;
23826;SDS011;12094;50.822;4.376;2022-08-01T06:22:59;12.63;;;8.38;;
23826;SDS011;12094;50.822;4.376;2022-08-01T06:25:32;15.05;;;9.60;;
23826;SDS011;12094;50.822;4.376;2022-08-01T06:27:59;14.35;;;10.70;;
23826;SDS011;12094;50.822;4.376;2022-08-01T06:30:26;17.92;;;10.05;;
23826;SDS011;12094;50.822;4.376;2022-08-01T06:32:54;14.57;;;10.15;;
23826;SDS011;12094;50.822;4.376;2022-08-01T06:35:24;16.30;;;9.82;;
23826;SDS011;12094;50.822;4.376;2022-08-01T06:37:53;12.82;;;9.10;;
23826;SDS011;12094;50.822;4.376;2022-08-01T06:40:22;16.52;;;9.65;;
23826;SDS011;12094;50.822;4.376;2022-08-01T06:42:49;16.20;;;9.70;;
23826;SDS011;12094;50.822;4.376;2022-08-01T06:45:17;18.05;;;10.48;;
23826;SDS011;12094;50.822;4.376;2022-08-01T06:47:44;12.23;;;9.45;;
23826;SDS011;12094;50.822;4.376;2022-08-01T06:50:16;15.15;;;9.40;;
23826;SDS011;12094;50.822;4.376;2022-08-01T06:52:44;18.58;;;8.57;;
23826;SDS011;12094;50.822;4.376;2022-08-01T06:55:11;10.00;;;7.97;;
23826;SDS011;12094;50.822;4.376;2022-08-01T06:57:45;12.85;;;6.82;;
23826;SDS011;12094;50.822;4.376;2022-08-01T07:00:17;13.70;;;7.55;;
23826;SDS011;12094;50.822;4.376;2022-08-01T07:02:52;9.27;;;6.67;;
23826;SDS011;12094;50.822;4.376;2022-08-01T07:05:21;12.45;;;7.75;;
23826;SDS011;12094;50.822;4.376;2022-08-01T07:07:48;13.63;;;8.65;;
23826;SDS011;12094;50.822;4.376;2022-08-01T07:10:16;10.30;;;8.05;;
23826;SDS011;12094;50.822;4.376;2022-08-01T07:12:45;10.48;;;7.70;;
23826;SDS011;12094;50.822;4.376;2022-08-01T07:15:12;10.93;;;6.95;;
23826;SDS011;12094;50.822;4.376;2022-08-01T07:17:41;8.77;;;6.85;;
23826;SDS011;12094;50.822;4.376;2022-08-01T07:20:11;11.35;;;7.05;;
23826;SDS011;12094;50.822;4.376;2022-08-01T07:22:42;11.37;;;7.67;;
23826;SDS011;12094;50.822;4.376;2022-08-01T07:25:12;9.13;;;6.63;;
23826;SDS011;12094;50.822;4.376;2022-08-01T07:27:41;9.48;;;6.85;;
23826;SDS011;12094;50.822;4.376;2022-08-01T07:30:09;7.90;;;6.03;;
23826;SDS011;12094;50.822;4.376;2022-08-01T07:32:36;8.25;;;6.15;;
23826;SDS011;12094;50.822;4.376;2022-08-01T07:35:03;9.82;;;5.63;;
23826;SDS011;12094;50.822;4.376;2022-08-01T07:37:30;7.03;;;6.05;;
23826;SDS011;12094;50.822;4.376;2022-08-01T07:40:14;10.82;;;6.63;;
23826;SDS011;12094;50.822;4.376;2022-08-01T07:42:43;9.48;;;6.35;;
23826;SDS011;12094;50.822;4.376;2022-08-01T07:45:11;7.35;;;6.50;;
23826;SDS011;12094;50.822;4.376;2022-08-01T07:47:42;7.32;;;5.60;;
23826;SDS011;12094;50.822;4.376;2022-08-01T07:50:09;9.85;;;7.15;;
23826;SDS011;12094;50.822;4.376;2022-08-01T07:52:36;7.80;;;6.40;;
23826;SDS011;12094;50.822;4.376;2022-08-01T07:55:04;10.63;;;9.48;;
23826;SDS011;12094;50.822;4.376;2022-08-01T07:57:32;9.57;;;8.57;;
23826;SDS011;12094;50.822;4.376;2022-08-01T07:59:59;12.45;;;9.18;;
23826;SDS011;12094;50.822;4.376;2022-08-01T08:02:29;9.75;;;8.38;;
23826;SDS011;12094;50.822;4.376;2022-08-01T08:04:59;11.00;;;8.02;;
23826;SDS011;12094;50.822;4.376;2022-08-01T08:07:27;8.32;;;7.50;;
23826;SDS011;12094;50.822;4.376;2022-08-01T08:09:55;7.22;;;6.50;;
23826;SDS011;12094;50.822;4.376;2022-08-01T08:12:22;11.13;;;7.47;;
23826;SDS011;12094;50.822;4.376;2022-08-01T08:14:55;5.93;;;5.35;;
23826;SDS011;12094;50.822;4.376;2022-08-01T08:17:22;7.15;;;5.50;;
23826;SDS011;12094;50.822;4.376;2022-08-01T08:19:51;8.07;;;4.72;;
23826;SDS011;12094;50.822;4.376;2022-08-01T08:22:20;6.40;;;4.50;;
23826;SDS011;12094;50.822;4.376;2022-08-01T08:24:47;6.10;;;4.55;;
23826;SDS011;12094;50.822;4.376;2022-08-01T08:27:14;5.43;;;4.35;;
23826;SDS011;12094;50.822;4.376;2022-08-01T08:29:41;5.68;;;4.35;;
23826;SDS011;12094;50.822;4.376;2022-08-01T08:32:10;7.32;;;3.83;;
23826;SDS011;12094;50.822;4.376;2022-08-01T08:34:38;5.68;;;3.72;;
23826;SDS011;12094;50.822;4.376;2022-08-01T08:37:06;5.95;;;3.50;;
23826;SDS011;12094;50.822;4.376;2022-08-01T08:39:34;4.25;;;2.78;;
23826;SDS011;12094;50.822;4.376;2022-08-01T08:42:10;4.18;;;2.90;;
23826;SDS011;12094;50.822;4.376;2022-08-01T08:44:42;4.90;;;2.53;;
23826;SDS011;12094;50.822;4.376;2022-08-01T08:47:13;7.40;;;2.58;;
23826;SDS011;12094;50.822;4.376;2022-08-01T08:49:46;5.95;;;3.08;;
23826;SDS011;12094;50.822;4.376;2022-08-01T08:52:17;17.77;;;11.52;;
23826;SDS011;12094;50.822;4.376;2022-08-01T08:54:46;13.43;;;8.23;;
23826;SDS011;12094;50.822;4.376;2022-08-01T08:57:14;5.18;;;3.35;;
23826;SDS011;12094;50.822;4.376;2022-08-01T08:59:42;6.22;;;3.63;;
23826;SDS011;12094;50.822;4.376;2022-08-01T09:02:10;4.57;;;2.42;;
23826;SDS011;12094;50.822;4.376;2022-08-01T09:04:39;3.35;;;2.70;;
23826;SDS011;12094;50.822;4.376;2022-08-01T09:07:07;5.43;;;2.47;;
23826;SDS011;12094;50.822;4.376;2022-08-01T09:09:37;4.15;;;2.17;;
23826;SDS011;12094;50.822;4.376;2022-08-01T09:12:07;2.72;;;2.13;;
23826;SDS011;12094;50.822;4.376;2022-08-01T09:14:43;5.97;;;2.58;;
23826;SDS011;12094;50.822;4.376;2022-08-01T09:17:11;3.67;;;2.10;;
23826;SDS011;12094;50.822;4.376;2022-08-01T09:22:09;2.63;;;1.67;;
23826;SDS011;12094;50.822;4.376;2022-08-01T09:24:38;2.22;;;1.33;;
23826;SDS011;12094;50.822;4.376;2022-08-01T09:27:19;2.38;;;1.60;;
23826;SDS011;12094;50.822;4.376;2022-08-01T09:29:51;2.72;;;2.10;;
23826;SDS011;12094;50.822;4.376;2022-08-01T09:32:30;3.55;;;2.17;;
23826;SDS011;12094;50.822;4.376;2022-08-01T09:35:22;4.97;;;3.08;;
23826;SDS011;12094;50.822;4.376;2022-08-01T09:40:51;2.88;;;2.53;;
23826;SDS011;12094;50.822;4.376;2022-08-01T09:43:21;7.35;;;2.80;;
23826;SDS011;12094;50.822;4.376;2022-08-01T09:48:23;3.67;;;2.70;;
23826;SDS011;12094;50.822;4.376;2022-08-01T09:50:55;4.95;;;2.55;;
23826;SDS011;12094;50.822;4.376;2022-08-01T09:53:45;2.65;;;2.42;;
23826;SDS011;12094;50.822;4.376;2022-08-01T09:56:19;4.25;;;1.95;;
23826;SDS011;12094;50.822;4.376;2022-08-01T09:58:55;2.83;;;2.10;;
23826;SDS011;12094;50.822;4.376;2022-08-01T10:01:41;2.10;;;1.90;;
23826;SDS011;12094;50.822;4.376;2022-08-01T10:04:11;3.85;;;2.17;;
23826;SDS011;12094;50.822;4.376;2022-08-01T10:06:44;2.00;;;1.70;;
23826;SDS011;12094;50.822;4.376;2022-08-01T10:12:07;3.70;;;1.27;;
23826;SDS011;12094;50.822;4.376;2022-08-01T10:14:43;1.55;;;1.10;;
23826;SDS011;12094;50.822;4.376;2022-08-01T10:17:18;5.30;;;1.20;;
23826;SDS011;12094;50.822;4.376;2022-08-01T10:19:48;2.53;;;1.40;;
23826;SDS011;12094;50.822;4.376;2022-08-01T10:22:22;3.20;;;1.35;;
23826;SDS011;12094;50.822;4.376;2022-08-01T10:24:52;3.60;;;1.52;;
23826;SDS011;12094;50.822;4.376;2022-08-01T10:27:21;4.60;;;1.58;;
23826;SDS011;12094;50.822;4.376;2022-08-01T10:30:05;3.25;;;1.58;;
23826;SDS011;12094;50.822;4.376;2022-08-01T10:32:49;4.80;;;1.52;;
23826;SDS011;12094;50.822;4.376;2022-08-01T10:35:20;5.55;;;1.52;;
23826;SDS011;12094;50.822;4.376;2022-08-01T10:38:11;2.60;;;1.52;;
23826;SDS011;12094;50.822;4.376;2022-08-01T10:40:39;3.38;;;1.40;;
23826;SDS011;12094;50.822;4.376;2022-08-01T10:43:09;1.95;;;1.30;;
23826;SDS011;12094;50.822;4.376;2022-08-01T10:45:38;4.70;;;1.30;;
23826;SDS011;12094;50.822;4.376;2022-08-01T10:51:04;2.25;;;0.85;;
23826;SDS011;12094;50.822;4.376;2022-08-01T10:53:48;3.03;;;0.90;;
23826;SDS011;12094;50.822;4.376;2022-08-01T10:56:22;3.33;;;1.08;;
23826;SDS011;12094;50.822;4.376;2022-08-01T10:59:00;4.65;;;1.10;;
23826;SDS011;12094;50.822;4.376;2022-08-01T11:01:36;2.90;;;1.15;;
23826;SDS011;12094;50.822;4.376;2022-08-01T11:04:12;3.58;;;1.00;;
23826;SDS011;12094;50.822;4.376;2022-08-01T11:06:54;5.35;;;1.05;;
23826;SDS011;12094;50.822;4.376;2022-08-01T11:09:46;1.92;;;1.23;;
23826;SDS011;12094;50.822;4.376;2022-08-01T11:12:37;3.30;;;1.08;;
23826;SDS011;12094;50.822;4.376;2022-08-01T11:15:16;2.58;;;1.50;;
23826;SDS011;12094;50.822;4.376;2022-08-01T11:21:08;1.77;;;1.10;;
23826;SDS011;12094;50.822;4.376;2022-08-01T11:23:58;1.55;;;0.95;;
23826;SDS011;12094;50.822;4.376;2022-08-01T11:26:36;3.53;;;1.20;;
23826;SDS011;12094;50.822;4.376;2022-08-01T11:30:21;3.13;;;1.30;;
23826;SDS011;12094;50.822;4.376;2022-08-01T11:32:45;3.15;;;1.20;;
23826;SDS011;12094;50.822;4.376;2022-08-01T11:35:38;3.90;;;0.90;;
23826;SDS011;12094;50.822;4.376;2022-08-01T11:39:10;3.25;;;1.10;;
23826;SDS011;12094;50.822;4.376;2022-08-01T11:41:39;5.38;;;1.30;;
23826;SDS011;12094;50.822;4.376;2022-08-01T11:44:12;3.75;;;0.90;;
23826;SDS011;12094;50.822;4.376;2022-08-01T11:52:23;4.53;;;1.00;;
23826;SDS011;12094;50.822;4.376;2022-08-01T11:55:08;9.02;;;1.23;;
23826;SDS011;12094;50.822;4.376;2022-08-01T11:57:42;3.92;;;1.00;;
23826;SDS011;12094;50.822;4.376;2022-08-01T12:02:44;1.27;;;0.90;;
23826;SDS011;12094;50.822;4.376;2022-08-01T12:05:13;5.18;;;1.23;;
23826;SDS011;12094;50.822;4.376;2022-08-01T12:07:43;4.40;;;0.98;;
23826;SDS011;12094;50.822;4.376;2022-08-01T12:10:15;3.70;;;1.13;;
23826;SDS011;12094;50.822;4.376;2022-08-01T12:12:45;1.60;;;1.00;;
23826;SDS011;12094;50.822;4.376;2022-08-01T12:15:19;2.22;;;1.08;;
23826;SDS011;12094;50.822;4.376;2022-08-01T12:20:26;4.20;;;1.10;;
23826;SDS011;12094;50.822;4.376;2022-08-01T12:23:01;6.85;;;1.30;;
23826;SDS011;12094;50.822;4.376;2022-08-01T12:25:29;5.95;;;1.15;;
23826;SDS011;12094;50.822;4.376;2022-08-01T12:28:00;4.82;;;1.20;;
23826;SDS011;12094;50.822;4.376;2022-08-01T12:30:31;2.08;;;1.30;;
23826;SDS011;12094;50.822;4.376;2022-08-01T12:33:05;1.60;;;1.15;;
23826;SDS011;12094;50.822;4.376;2022-08-01T12:35:37;2.00;;;1.17;;
23826;SDS011;12094;50.822;4.376;2022-08-01T12:38:26;2.10;;;0.88;;
23826;SDS011;12094;50.822;4.376;2022-08-01T12:40:54;2.75;;;0.93;;
23826;SDS011;12094;50.822;4.376;2022-08-01T12:43:22;2.85;;;1.10;;
23826;SDS011;12094;50.822;4.376;2022-08-01T12:45:57;3.38;;;1.00;;
23826;SDS011;12094;50.822;4.376;2022-08-01T12:48:26;3.78;;;1.25;;
23826;SDS011;12094;50.822;4.376;2022-08-01T12:50:56;1.65;;;1.08;;
23826;SDS011;12094;50.822;4.376;2022-08-01T12:53:27;4.18;;;1.02;;
23826;SDS011;12094;50.822;4.376;2022-08-01T12:56:06;3.60;;;1.00;;
23826;SDS011;12094;50.822;4.376;2022-08-01T12:58:34;2.33;;;1.10;;
23826;SDS011;12094;50.822;4.376;2022-08-01T13:01:03;3.25;;;1.17;;
23826;SDS011;12094;50.822;4.376;2022-08-01T13:03:32;5.63;;;1.45;;
23826;SDS011;12094;50.822;4.376;2022-08-01T13:06:00;3.70;;;1.02;;
23826;SDS011;12094;50.822;4.376;2022-08-01T13:08:31;4.65;;;1.13;;
23826;SDS011;12094;50.822;4.376;2022-08-01T13:11:04;2.10;;;1.17;;
23826;SDS011;12094;50.822;4.376;2022-08-01T13:13:44;2.25;;;1.00;;
23826;SDS011;12094;50.822;4.376;2022-08-01T13:16:17;4.50;;;1.23;;
23826;SDS011;12094;50.822;4.376;2022-08-01T13:19:06;2.40;;;1.08;;
23826;SDS011;12094;50.822;4.376;2022-08-01T13:21:33;4.03;;;1.38;;
23826;SDS011;12094;50.822;4.376;2022-08-01T13:24:23;3.03;;;1.23;;
23826;SDS011;12094;50.822;4.376;2022-08-01T13:26:51;1.73;;;1.20;;
23826;SDS011;12094;50.822;4.376;2022-08-01T13:29:20;3.80;;;1.38;;
23826;SDS011;12094;50.822;4.376;2022-08-01T13:31:49;2.65;;;1.13;;
23826;SDS011;12094;50.822;4.376;2022-08-01T13:34:16;4.78;;;1.33;;
23826;SDS011;12094;50.822;4.376;2022-08-01T13:36:43;6.32;;;1.30;;
23826;SDS011;12094;50.822;4.376;2022-08-01T13:39:15;2.73;;;1.17;;
23826;SDS011;12094;50.822;4.376;2022-08-01T13:42:01;3.60;;;1.23;;
23826;SDS011;12094;50.822;4.376;2022-08-01T13:44:29;2.92;;;1.20;;
23826;SDS011;12094;50.822;4.376;2022-08-01T13:46:56;7.60;;;1.40;;
23826;SDS011;12094;50.822;4.376;2022-08-01T13:49:23;6.15;;;1.40;;
23826;SDS011;12094;50.822;4.376;2022-08-01T13:52:04;3.22;;;1.30;;
23826;SDS011;12094;50.822;4.376;2022-08-01T13:54:34;4.95;;;1.27;;
23826;SDS011;12094;50.822;4.376;2022-08-01T13:57:02;4.15;;;1.20;;
23826;SDS011;12094;50.822;4.376;2022-08-01T13:59:30;3.65;;;1.17;;
23826;SDS011;12094;50.822;4.376;2022-08-01T14:01:57;2.10;;;0.90;;
23826;SDS011;12094;50.822;4.376;2022-08-01T14:04:24;1.52;;;0.95;;
23826;SDS011;12094;50.822;4.376;2022-08-01T14:06:52;4.22;;;1.20;;
23826;SDS011;12094;50.822;4.376;2022-08-01T14:09:20;1.92;;;0.90;;
23826;SDS011;12094;50.822;4.376;2022-08-01T14:11:50;4.30;;;1.00;;
23826;SDS011;12094;50.822;4.376;2022-08-01T14:14:18;5.00;;;1.27;;
23826;SDS011;12094;50.822;4.376;2022-08-01T14:16:46;5.20;;;1.50;;
23826;SDS011;12094;50.822;4.376;2022-08-01T14:19:14;5.32;;;1.20;;
23826;SDS011;12094;50.822;4.376;2022-08-01T14:21:45;3.13;;;1.20;;
23826;SDS011;12094;50.822;4.376;2022-08-01T14:24:12;2.00;;;1.25;;
23826;SDS011;12094;50.822;4.376;2022-08-01T14:26:39;4.28;;;1.30;;
23826;SDS011;12094;50.822;4.376;2022-08-01T14:29:08;2.92;;;1.20;;
23826;SDS011;12094;50.822;4.376;2022-08-01T14:31:35;8.15;;;1.30;;
23826;SDS011;12094;50.822;4.376;2022-08-01T14:34:02;4.13;;;1.15;;
23826;SDS011;12094;50.822;4.376;2022-08-01T14:36:29;6.85;;;1.10;;
23826;SDS011;12094;50.822;4.376;2022-08-01T14:39:03;2.00;;;1.05;;
23826;SDS011;12094;50.822;4.376;2022-08-01T14:41:32;5.65;;;1.52;;
23826;SDS011;12094;50.822;4.376;2022-08-01T14:44:01;2.28;;;1.08;;
23826;SDS011;12094;50.822;4.376;2022-08-01T14:46:28;1.77;;;1.35;;
23826;SDS011;12094;50.822;4.376;2022-08-01T14:48:59;2.80;;;1.17;;
23826;SDS011;12094;50.822;4.376;2022-08-01T14:51:26;2.13;;;1.10;;
23826;SDS011;12094;50.822;4.376;2022-08-01T14:53:53;2.78;;;1.20;;
23826;SDS011;12094;50.822;4.376;2022-08-01T14:56:21;4.30;;;0.88;;
23826;SDS011;12094;50.822;4.376;2022-08-01T14:58:48;2.30;;;0.90;;
23826;SDS011;12094;50.822;4.376;2022-08-01T15:01:15;4.25;;;1.00;;
23826;SDS011;12094;50.822;4.376;2022-08-01T15:03:44;1.58;;;1.00;;
23826;SDS011;12094;50.822;4.376;2022-08-01T15:06:13;2.90;;;1.30;;
23826;SDS011;12094;50.822;4.376;2022-08-01T15:08:40;2.53;;;1.10;;
23826;SDS011;12094;50.822;4.376;2022-08-01T15:11:07;4.05;;;1.23;;
23826;SDS011;12094;50.822;4.376;2022-08-01T15:13:35;2.08;;;1.00;;
23826;SDS011;12094;50.822;4.376;2022-08-01T15:16:07;4.95;;;1.02;;
23826;SDS011;12094;50.822;4.376;2022-08-01T15:18:37;3.25;;;1.30;;
23826;SDS011;12094;50.822;4.376;2022-08-01T15:21:04;3.25;;;1.20;;
23826;SDS011;12094;50.822;4.376;2022-08-01T15:23:32;2.80;;;1.20;;
23826;SDS011;12094;50.822;4.376;2022-08-01T15:25:59;3.47;;;0.90;;
23826;SDS011;12094;50.822;4.376;2022-08-01T15:28:26;3.05;;;1.27;;
23826;SDS011;12094;50.822;4.376;2022-08-01T15:30:53;2.97;;;1.40;;
23826;SDS011;12094;50.822;4.376;2022-08-01T15:33:19;3.40;;;1.15;;
23826;SDS011;12094;50.822;4.376;2022-08-01T15:35:50;2.50;;;1.20;;
23826;SDS011;12094;50.822;4.376;2022-08-01T15:38:18;2.17;;;1.00;;
23826;SDS011;12094;50.822;4.376;2022-08-01T15:40:45;2.50;;;1.13;;
23826;SDS011;12094;50.822;4.376;2022-08-01T15:43:12;2.80;;;0.95;;
23826;SDS011;12094;50.822;4.376;2022-08-01T15:45:41;1.65;;;1.00;;
23826;SDS011;12094;50.822;4.376;2022-08-01T15:48:13;2.15;;;0.98;;